createdAt,value
2018-12-29T00:01:13.499Z,39.07
2018-12-29T00:04:02.636Z,36.80
2018-12-29T00:06:51.791Z,36.60
2018-12-29T00:09:41.351Z,41.00
2018-12-29T00:12:30.470Z,42.10
2018-12-29T00:15:19.590Z,45.90
2018-12-29T00:18:09.101Z,42.03
2018-12-29T00:20:58.216Z,47.57
2018-12-29T00:23:47.318Z,50.30
2018-12-29T00:26:36.457Z,43.60
2018-12-29T00:29:25.938Z,43.33
2018-12-29T00:32:15.056Z,50.93
2018-12-29T00:35:04.323Z,43.33
2018-12-29T00:37:53.481Z,45.33
2018-12-29T00:40:42.915Z,53.00
2018-12-29T00:43:32.619Z,48.20
2018-12-29T00:46:22.062Z,51.60
2018-12-29T00:49:11.245Z,53.33
2018-12-29T00:52:19.927Z,54.07
2018-12-29T00:55:09.076Z,51.73
2018-12-29T00:57:58.250Z,54.20
2018-12-29T01:03:55.695Z,53.93
2018-12-29T01:06:45.366Z,58.50
2018-12-29T01:09:35.117Z,60.47
2018-12-29T01:12:24.232Z,52.43
2018-12-29T01:15:13.675Z,68.37
2018-12-29T01:18:03.137Z,56.30
2018-12-29T01:20:52.320Z,68.43
2018-12-29T01:23:41.417Z,57.93
2018-12-29T01:26:30.589Z,62.77
2018-12-29T01:29:19.711Z,65.33
2018-12-29T01:32:09.205Z,64.87
2018-12-29T01:34:58.317Z,59.80
2018-12-29T01:37:47.739Z,57.73
2018-12-29T01:40:37.195Z,57.87
2018-12-29T01:43:26.955Z,59.60
2018-12-29T01:46:16.663Z,53.03
2018-12-29T01:48:57.150Z,58.73
2018-12-29T01:51:47.061Z,52.33
2018-12-29T01:54:36.454Z,56.07
2018-12-29T01:57:25.820Z,51.37
2018-12-29T02:00:15.060Z,46.90
2018-12-29T02:03:04.453Z,59.47
2018-12-29T02:05:53.573Z,43.53
2018-12-29T02:08:43.016Z,48.37
2018-12-29T02:11:32.149Z,50.60
2018-12-29T02:14:21.784Z,45.97
2018-12-29T02:17:11.146Z,50.50
2018-12-29T02:20:20.369Z,54.43
2018-12-29T02:23:09.486Z,53.90
2018-12-29T02:25:58.681Z,55.67
2018-12-29T02:28:48.497Z,48.40
2018-12-29T02:31:37.892Z,50.47
2018-12-29T02:34:27.058Z,47.73
2018-12-29T02:37:16.170Z,41.20
2018-12-29T02:43:13.942Z,51.33
2018-12-29T02:46:03.345Z,44.87
2018-12-29T02:48:45.550Z,44.97
2018-12-29T02:51:34.919Z,50.77
2018-12-29T02:54:24.955Z,50.33
2018-12-29T02:57:14.345Z,48.63
2018-12-29T03:00:03.492Z,48.07
2018-12-29T03:02:52.665Z,48.33
2018-12-29T03:05:41.791Z,42.97
2018-12-29T03:08:30.945Z,46.87
2018-12-29T03:11:20.451Z,41.90
2018-12-29T03:14:10.162Z,47.77
2018-12-29T03:16:59.662Z,42.80
2018-12-29T03:19:49.257Z,47.47
2018-12-29T03:22:38.706Z,40.10
2018-12-29T03:25:28.089Z,44.93
2018-12-29T03:28:17.858Z,49.97
2018-12-29T03:31:07.246Z,46.93
2018-12-29T03:33:56.632Z,39.83
2018-12-29T03:36:45.738Z,44.97
2018-12-29T03:39:35.439Z,38.33
2018-12-29T03:42:24.946Z,42.50
2018-12-29T03:48:01.193Z,41.63
2018-12-29T03:50:50.313Z,43.50
2018-12-29T03:53:39.738Z,45.40
2018-12-29T03:56:29.205Z,39.87
2018-12-29T03:59:19.183Z,41.83
2018-12-29T04:02:08.701Z,40.63
2018-12-29T04:04:57.825Z,47.53
2018-12-29T04:07:46.982Z,37.93
2018-12-29T04:10:36.346Z,35.87
2018-12-29T04:13:25.469Z,33.20
2018-12-29T04:16:15.223Z,37.70
2018-12-29T04:19:04.572Z,37.00
2018-12-29T04:21:53.734Z,33.07
2018-12-29T04:24:43.448Z,39.60
2018-12-29T04:27:52.385Z,32.40
2018-12-29T04:30:41.531Z,32.73
2018-12-29T04:33:30.652Z,32.60
2018-12-29T04:36:19.823Z,31.93
2018-12-29T04:39:08.949Z,30.87
2018-12-29T04:41:58.097Z,29.10
2018-12-29T04:44:47.568Z,27.73
2018-12-29T04:47:36.694Z,27.77
2018-12-29T04:50:18.220Z,25.20
2018-12-29T04:53:07.734Z,31.00
2018-12-29T04:55:57.208Z,27.27
2018-12-29T04:58:46.614Z,28.57
2018-12-29T05:01:36.318Z,29.97
2018-12-29T05:04:25.831Z,26.90
2018-12-29T05:07:15.267Z,26.27
2018-12-29T05:10:11.432Z,27.67
2018-12-29T05:13:00.869Z,28.20
2018-12-29T05:15:50.661Z,27.83
2018-12-29T05:18:39.776Z,26.17
2018-12-29T05:21:29.188Z,30.27
2018-12-29T05:24:18.674Z,29.43
2018-12-29T05:27:07.780Z,27.07
2018-12-29T05:29:57.206Z,33.00
2018-12-29T05:32:46.561Z,31.70
2018-12-29T05:35:36.037Z,27.50
2018-12-29T05:38:25.528Z,31.07
2018-12-29T05:41:14.685Z,30.20
2018-12-29T05:44:03.841Z,30.90
2018-12-29T05:49:48.327Z,33.73
2018-12-29T05:52:37.475Z,28.87
2018-12-29T05:55:46.117Z,31.70
2018-12-29T05:58:54.757Z,35.70
2018-12-29T06:01:44.528Z,33.77
2018-12-29T06:04:33.673Z,34.07
2018-12-29T06:07:22.857Z,33.30
2018-12-29T06:10:11.970Z,34.47
2018-12-29T06:13:01.370Z,36.23
2018-12-29T06:15:51.176Z,32.70
2018-12-29T06:18:40.320Z,33.50
2018-12-29T06:21:29.455Z,36.23
2018-12-29T06:24:18.683Z,34.57
2018-12-29T06:27:07.809Z,37.93
2018-12-29T06:29:56.951Z,35.30
2018-12-29T06:32:46.083Z,38.70
2018-12-29T06:38:30.316Z,35.73
2018-12-29T06:41:19.821Z,35.47
2018-12-29T06:44:09.578Z,38.30
2018-12-29T06:46:58.687Z,38.70
2018-12-29T06:49:40.872Z,39.23
2018-12-29T06:52:29.999Z,38.40
2018-12-29T06:55:19.115Z,39.70
2018-12-29T06:58:08.239Z,42.73
2018-12-29T07:00:57.629Z,44.73
2018-12-29T07:03:47.410Z,47.03
2018-12-29T07:06:36.548Z,45.77
2018-12-29T07:09:26.258Z,45.70
2018-12-29T07:12:35.174Z,48.43
2018-12-29T07:15:24.304Z,47.60
2018-12-29T07:18:13.722Z,48.50
2018-12-29T07:24:11.411Z,44.00
2018-12-29T07:30:08.950Z,46.93
2018-12-29T07:32:58.354Z,45.13
2018-12-29T07:35:47.838Z,44.93
2018-12-29T07:41:45.023Z,44.90
2018-12-29T07:44:34.669Z,48.50
2018-12-29T07:47:24.047Z,48.13
2018-12-29T07:50:06.189Z,42.30
2018-12-29T07:52:55.553Z,44.67
2018-12-29T07:55:44.989Z,49.23
2018-12-29T07:58:34.112Z,42.33
2018-12-29T08:01:23.238Z,45.70
2018-12-29T08:04:13.066Z,47.47
2018-12-29T08:10:10.287Z,43.00
2018-12-29T08:12:59.650Z,39.40
2018-12-29T08:15:48.772Z,49.37
2018-12-29T08:18:38.180Z,39.27
2018-12-29T08:21:27.556Z,36.40
2018-12-29T08:24:16.681Z,41.87
2018-12-29T08:27:06.118Z,39.80
2018-12-29T08:29:55.514Z,41.30
2018-12-29T08:32:44.946Z,43.03
2018-12-29T08:35:34.076Z,40.20
2018-12-29T08:38:23.192Z,44.40
2018-12-29T08:41:12.311Z,41.03
2018-12-29T08:44:01.891Z,46.50
2018-12-29T08:46:51.292Z,45.20
2018-12-29T08:49:21.848Z,36.67
2018-12-29T08:51:51.758Z,39.87
2018-12-29T08:54:21.884Z,40.77
2018-12-29T08:56:51.789Z,36.70
2018-12-29T08:59:21.934Z,40.07
2018-12-29T09:01:52.180Z,37.40
2018-12-29T09:04:22.431Z,36.80
2018-12-29T09:06:52.325Z,34.70
2018-12-29T09:09:22.222Z,39.63
2018-12-29T09:11:55.060Z,34.93
2018-12-29T09:14:25.562Z,37.20
2018-12-29T09:16:55.512Z,35.93
2018-12-29T09:19:27.386Z,34.43
2018-12-29T09:21:57.876Z,30.37
2018-12-29T09:24:28.087Z,36.83
2018-12-29T09:26:57.975Z,31.57
2018-12-29T09:29:28.714Z,35.33
2018-12-29T09:31:58.965Z,30.70
2018-12-29T09:34:29.158Z,33.03
2018-12-29T09:36:59.053Z,34.23
2018-12-29T09:39:29.235Z,33.83
2018-12-29T09:41:59.160Z,34.03
2018-12-29T09:44:29.299Z,30.10
2018-12-29T09:46:59.769Z,31.13
2018-12-29T09:49:30.322Z,30.43
2018-12-29T09:52:00.192Z,29.83
2018-12-29T09:54:30.097Z,28.47
2018-12-29T09:57:00.663Z,25.47
2018-12-29T09:59:30.884Z,23.53
2018-12-29T10:02:01.088Z,26.77
2018-12-29T10:04:31.223Z,26.87
2018-12-29T10:07:01.189Z,28.53
2018-12-29T10:09:31.711Z,24.93
2018-12-29T10:12:01.601Z,26.93
2018-12-29T10:14:31.823Z,25.43
2018-12-29T10:17:02.024Z,29.70
2018-12-29T10:19:32.568Z,33.67
2018-12-29T10:22:02.819Z,27.30
2018-12-29T10:24:33.522Z,25.77
2018-12-29T10:27:03.438Z,29.33
2018-12-29T10:29:33.994Z,24.77
2018-12-29T10:32:04.079Z,23.00
2018-12-29T10:34:33.970Z,22.80
2018-12-29T10:37:04.212Z,23.07
2018-12-29T10:39:34.073Z,21.70
2018-12-29T10:42:04.234Z,25.47
2018-12-29T10:44:34.153Z,22.30
2018-12-29T10:47:04.589Z,22.90
2018-12-29T10:49:34.492Z,18.83
2018-12-29T10:52:16.913Z,24.60
2018-12-29T10:55:06.167Z,21.70
2018-12-29T10:57:36.073Z,21.57
2018-12-29T11:00:08.135Z,20.37
2018-12-29T11:02:38.387Z,17.13
2018-12-29T11:05:09.135Z,17.93
2018-12-29T11:07:39.337Z,17.33
2018-12-29T11:10:09.320Z,16.00
2018-12-29T11:12:39.179Z,15.90
2018-12-29T11:15:09.120Z,13.30
2018-12-29T11:17:42.479Z,18.10
2018-12-29T11:20:11.588Z,14.83
2018-12-29T11:22:41.827Z,14.43
2018-12-29T11:25:12.668Z,15.67
2018-12-29T11:27:42.574Z,17.83
2018-12-29T11:30:12.468Z,13.53
2018-12-29T11:32:42.780Z,12.63
2018-12-29T11:35:12.916Z,11.10
2018-12-29T11:37:44.100Z,13.17
2018-12-29T11:40:14.037Z,12.73
2018-12-29T11:42:44.288Z,13.87
2018-12-29T11:45:14.543Z,10.70
2018-12-29T11:47:49.811Z,10.20
2018-12-29T11:50:16.749Z,12.83
2018-12-29T11:52:46.922Z,8.90
2018-12-29T11:55:17.470Z,13.70
2018-12-29T11:57:47.673Z,10.80
2018-12-29T12:00:17.943Z,7.27
2018-12-29T12:02:47.835Z,8.30
2018-12-29T12:05:17.776Z,7.73
2018-12-29T12:07:48.449Z,8.47
2018-12-29T12:10:18.339Z,9.30
2018-12-29T12:12:48.605Z,8.07
2018-12-29T12:15:18.484Z,7.87
2018-12-29T12:17:48.499Z,9.03
2018-12-29T12:20:18.735Z,8.43
2018-12-29T12:22:49.699Z,9.70
2018-12-29T12:25:19.852Z,7.03
2018-12-29T12:27:50.386Z,7.27
2018-12-29T12:30:20.564Z,6.90
2018-12-29T12:32:50.978Z,8.70
2018-12-29T12:35:21.314Z,7.07
2018-12-29T12:37:51.762Z,6.90
2018-12-29T12:40:21.687Z,7.27
2018-12-29T12:42:52.351Z,6.60
2018-12-29T12:45:22.597Z,6.47
2018-12-29T12:47:52.826Z,5.80
2018-12-29T12:50:23.050Z,6.77
2018-12-29T12:52:53.167Z,6.17
2018-12-29T12:55:23.466Z,6.07
2018-12-29T12:57:53.522Z,6.53
2018-12-29T13:00:23.942Z,6.53
2018-12-29T13:02:54.460Z,7.63
2018-12-29T13:05:24.359Z,6.73
2018-12-29T13:07:54.518Z,6.63
2018-12-29T13:10:25.056Z,7.03
2018-12-29T13:12:54.918Z,9.73
2018-12-29T13:15:25.024Z,7.77
2018-12-29T13:17:55.154Z,8.83
2018-12-29T13:20:25.364Z,6.80
2018-12-29T13:22:55.593Z,6.73
2018-12-29T13:25:26.166Z,8.33
2018-12-29T13:27:57.025Z,6.33
2018-12-29T13:30:27.525Z,7.30
2018-12-29T13:32:57.483Z,6.73
2018-12-29T13:35:27.775Z,6.27
2018-12-29T13:37:58.043Z,5.87
2018-12-29T13:40:27.974Z,5.80
2018-12-29T13:42:58.127Z,4.67
2018-12-29T13:45:28.027Z,4.57
2018-12-29T13:47:58.240Z,5.50
2018-12-29T13:50:28.398Z,4.43
2018-12-29T13:52:58.302Z,5.30
2018-12-29T13:55:28.201Z,5.47
2018-12-29T13:57:58.407Z,4.80
2018-12-29T14:00:28.613Z,5.97
2018-12-29T14:02:58.499Z,6.67
2018-12-29T14:05:28.507Z,5.70
2018-12-29T14:07:58.679Z,6.43
2018-12-29T14:10:28.856Z,6.40
2018-12-29T14:12:58.722Z,6.30
2018-12-29T14:15:28.959Z,6.73
2018-12-29T14:17:58.872Z,7.07
2018-12-29T14:20:29.092Z,7.47
2018-12-29T14:22:59.310Z,7.23
2018-12-29T14:25:29.566Z,6.80
2018-12-29T14:28:00.063Z,7.57
2018-12-29T14:30:30.294Z,8.37
2018-12-29T14:33:00.504Z,8.03
2018-12-29T14:35:30.379Z,9.40
2018-12-29T14:38:00.657Z,7.43
2018-12-29T14:40:31.007Z,9.27
2018-12-29T14:43:01.116Z,8.87
2018-12-29T14:45:30.982Z,8.90
2018-12-29T14:48:01.227Z,9.07
2018-12-29T14:50:31.118Z,8.20
2018-12-29T14:53:01.064Z,10.73
2018-12-29T14:55:31.299Z,9.37
2018-12-29T14:58:01.782Z,9.67
2018-12-29T15:00:32.340Z,9.20
2018-12-29T15:03:02.542Z,8.50
2018-12-29T15:05:32.458Z,8.60
2018-12-29T15:08:03.393Z,7.60
2018-12-29T15:10:33.568Z,7.30
2018-12-29T15:13:03.451Z,8.57
2018-12-29T15:15:33.656Z,8.80
2018-12-29T15:18:03.828Z,10.93
2018-12-29T15:20:34.574Z,10.30
2018-12-29T15:23:04.744Z,9.07
2018-12-29T15:25:34.977Z,10.70
2018-12-29T15:28:05.500Z,9.40
2018-12-29T15:30:36.018Z,9.30
2018-12-29T15:33:05.988Z,11.60
2018-12-29T15:35:36.278Z,10.00
2018-12-29T15:38:06.545Z,12.73
2018-12-29T15:40:36.590Z,11.70
2018-12-29T15:43:06.852Z,10.33
2018-12-29T15:45:37.469Z,13.23
2018-12-29T15:48:07.554Z,10.70
2018-12-29T15:50:37.535Z,12.87
2018-12-29T15:53:08.363Z,13.37
2018-12-29T15:55:38.726Z,13.97
2018-12-29T16:01:56.862Z,16.60
2018-12-29T16:04:27.122Z,15.13
2018-12-29T16:06:57.372Z,12.63
2018-12-29T16:09:27.916Z,13.60
2018-12-29T16:11:58.352Z,12.97
2018-12-29T16:14:35.249Z,16.73
2018-12-29T16:16:59.853Z,16.10
2018-12-29T16:19:29.997Z,14.63
2018-12-29T16:21:59.905Z,20.20
2018-12-29T16:24:30.145Z,19.47
2018-12-29T16:27:00.673Z,19.60
2018-12-29T16:29:30.815Z,20.13
2018-12-29T16:32:01.062Z,21.67
2018-12-29T16:34:31.045Z,22.27
2018-12-29T16:37:00.983Z,21.73
2018-12-29T16:39:31.883Z,21.93
2018-12-29T16:42:01.820Z,24.70
2018-12-29T16:44:31.707Z,23.53
2018-12-29T16:47:01.837Z,27.30
2018-12-29T16:49:32.125Z,27.33
2018-12-29T16:52:02.028Z,23.17
2018-12-29T16:54:32.297Z,24.70
2018-12-29T16:57:02.193Z,25.67
2018-12-29T16:59:34.695Z,25.07
2018-12-29T17:02:04.880Z,23.40
2018-12-29T17:04:34.829Z,24.63
2018-12-29T17:07:05.057Z,25.50
2018-12-29T17:09:35.315Z,25.80
2018-12-29T17:12:06.025Z,24.33
2018-12-29T17:14:36.754Z,23.17
2018-12-29T17:17:06.623Z,23.73
2018-12-29T17:19:36.922Z,26.13
2018-12-29T17:22:06.852Z,22.37
2018-12-29T17:24:36.756Z,23.40
2018-12-29T17:27:06.949Z,20.00
2018-12-29T17:29:37.255Z,22.27
2018-12-29T17:32:07.473Z,20.23
2018-12-29T17:34:37.403Z,25.27
2018-12-29T17:37:07.324Z,21.17
2018-12-29T17:39:38.374Z,23.47
2018-12-29T17:42:08.469Z,23.83
2018-12-29T17:44:38.667Z,24.27
2018-12-29T17:47:08.749Z,30.70
2018-12-29T17:49:38.907Z,28.67
2018-12-29T17:52:09.154Z,23.07
2018-12-29T17:54:39.349Z,25.70
2018-12-29T17:57:09.203Z,25.97
2018-12-29T17:59:39.077Z,26.10
2018-12-29T18:02:09.642Z,29.10
2018-12-29T18:04:39.787Z,22.33
2018-12-29T18:07:09.664Z,22.03
2018-12-29T18:09:39.577Z,22.47
2018-12-29T18:12:09.536Z,23.83
2018-12-29T18:14:39.394Z,22.10
2018-12-29T18:17:09.488Z,21.27
2018-12-29T18:19:40.578Z,23.07
2018-12-29T18:22:11.109Z,23.37
2018-12-29T18:24:41.409Z,18.87
2018-12-29T18:27:11.866Z,15.83
2018-12-29T18:29:42.132Z,15.23
2018-12-29T18:32:12.397Z,14.00
2018-12-29T18:34:42.976Z,20.40
2018-12-29T18:37:15.427Z,10.83
2018-12-29T18:39:45.204Z,11.00
2018-12-29T18:42:15.357Z,9.93
2018-12-29T18:44:45.696Z,16.03
2018-12-29T18:47:19.760Z,10.50
2018-12-29T18:49:50.109Z,9.70
2018-12-29T18:52:20.141Z,8.40
2018-12-29T18:54:50.439Z,8.17
2018-12-29T18:57:20.964Z,6.47
2018-12-29T18:59:51.087Z,5.20
2018-12-29T19:02:21.711Z,4.83
2018-12-29T19:04:52.365Z,3.70
2018-12-29T19:07:22.796Z,3.70
2018-12-29T19:09:52.948Z,3.03
2018-12-29T19:12:22.928Z,2.33
2018-12-29T19:14:53.528Z,2.40
2018-12-29T19:17:23.487Z,1.90
2018-12-29T19:19:54.950Z,2.30
2018-12-29T19:22:25.012Z,2.00
2018-12-29T19:24:55.634Z,2.40
2018-12-29T19:27:25.521Z,2.10
2018-12-29T19:29:55.484Z,3.10
2018-12-29T19:32:26.346Z,2.33
2018-12-29T19:34:56.869Z,2.87
2018-12-29T19:37:33.814Z,1.90
2018-12-29T19:40:03.997Z,2.07
2018-12-29T19:42:35.347Z,2.00
2018-12-29T19:45:05.719Z,2.13
2018-12-29T19:47:35.784Z,2.03
2018-12-29T19:50:06.883Z,1.80
2018-12-29T19:52:37.435Z,1.90
2018-12-29T19:55:07.529Z,1.80
2018-12-29T19:57:37.763Z,1.73
2018-12-29T20:00:10.493Z,1.87
2018-12-29T20:02:40.717Z,1.70
2018-12-29T20:05:11.697Z,1.97
2018-12-29T20:07:41.702Z,1.70
2018-12-29T20:10:12.101Z,2.00
2018-12-29T20:12:42.404Z,2.30
2018-12-29T20:15:12.662Z,1.80
2018-12-29T20:17:42.631Z,2.50
2018-12-29T20:20:12.606Z,2.50
2018-12-29T20:22:42.523Z,2.30
2018-12-29T20:25:12.764Z,2.13
2018-12-29T20:27:42.678Z,1.90
2018-12-29T20:30:12.685Z,2.60
2018-12-29T20:32:42.806Z,2.90
2018-12-29T20:35:12.884Z,2.03
2018-12-29T20:37:43.359Z,2.13
2018-12-29T20:40:14.212Z,1.97
2018-12-29T20:42:44.465Z,1.80
2018-12-29T20:45:14.758Z,2.17
2018-12-29T20:47:44.832Z,2.57
2018-12-29T20:50:15.069Z,2.57
2018-12-29T20:52:45.180Z,2.23
2018-12-29T20:55:15.427Z,1.83
2018-12-29T20:57:45.603Z,2.27
2018-12-29T21:00:15.860Z,2.70
2018-12-29T21:02:46.004Z,2.10
2018-12-29T21:05:16.853Z,2.23
2018-12-29T21:07:46.799Z,2.37
2018-12-29T21:10:17.402Z,2.03
2018-12-29T21:12:47.711Z,1.87
2018-12-29T21:15:18.147Z,2.00
2018-12-29T21:17:48.147Z,2.77
2018-12-29T21:20:18.498Z,2.27
2018-12-29T21:22:48.674Z,2.43
2018-12-29T21:25:20.192Z,2.43
2018-12-29T21:27:50.393Z,1.30
2018-12-29T21:30:20.805Z,2.03
2018-12-29T21:32:51.422Z,1.43
2018-12-29T21:35:22.712Z,2.00
2018-12-29T21:37:52.985Z,1.70
2018-12-29T21:40:22.905Z,1.40
2018-12-29T21:42:54.368Z,1.60
2018-12-29T21:45:24.509Z,1.70
2018-12-29T21:47:54.811Z,1.50
2018-12-29T21:50:25.789Z,1.90
2018-12-29T21:52:57.699Z,1.20
2018-12-29T21:55:28.129Z,1.63
2018-12-29T21:57:59.626Z,1.53
2018-12-29T22:00:29.481Z,1.83
2018-12-29T22:02:59.393Z,3.30
2018-12-29T22:05:29.673Z,1.70
2018-12-29T22:07:59.706Z,2.40
2018-12-29T22:10:30.012Z,2.93
2018-12-29T22:13:01.451Z,2.30
2018-12-29T22:15:33.950Z,3.20
2018-12-29T22:18:04.215Z,3.10
2018-12-29T22:20:35.245Z,4.13
2018-12-29T22:23:05.551Z,5.37
2018-12-29T22:25:35.782Z,8.00
2018-12-29T22:28:05.659Z,11.27
2018-12-29T22:30:35.838Z,11.47
2018-12-29T22:33:05.884Z,12.13
2018-12-29T22:35:35.924Z,13.30
2018-12-29T22:38:06.183Z,14.37
2018-12-29T22:40:36.768Z,13.80
2018-12-29T22:43:08.288Z,13.70
2018-12-29T22:45:38.263Z,15.33
2018-12-29T22:48:08.145Z,16.60
2018-12-29T22:50:41.172Z,14.10
2018-12-29T22:53:10.400Z,13.23
2018-12-29T22:55:40.928Z,12.67
2018-12-29T22:58:11.250Z,17.53
2018-12-29T23:00:42.664Z,12.87
2018-12-29T23:03:13.535Z,18.03
2018-12-29T23:05:43.432Z,15.47
2018-12-29T23:08:13.997Z,13.07
2018-12-29T23:10:43.912Z,18.50
2018-12-29T23:13:14.135Z,16.63
2018-12-29T23:15:44.105Z,15.10
2018-12-29T23:18:14.774Z,11.07
2018-12-29T23:20:49.110Z,10.77
2018-12-29T23:23:17.250Z,13.20
2018-12-29T23:25:49.728Z,7.73
2018-12-29T23:28:19.962Z,4.37
2018-12-29T23:30:49.867Z,5.70
2018-12-29T23:33:20.491Z,3.73
2018-12-29T23:35:50.420Z,3.87
2018-12-29T23:38:20.965Z,2.33
2018-12-29T23:40:50.849Z,3.37
2018-12-29T23:43:24.360Z,1.33
2018-12-29T23:45:54.989Z,2.00
2018-12-29T23:48:25.249Z,1.70
2018-12-29T23:51:05.231Z,1.00
2018-12-29T23:53:27.043Z,3.03
2018-12-29T23:55:57.727Z,1.23
2018-12-29T23:58:27.645Z,5.63
